createdAt,value
2023-05-24T00:03:20.129Z,7.9
2023-05-24T00:13:27.536Z,7.7
2023-05-24T00:23:34.962Z,7.7
2023-05-24T00:33:42.361Z,7.6
2023-05-24T00:43:49.775Z,7.3
2023-05-24T00:53:57.179Z,7.3
2023-05-24T01:04:04.600Z,7
2023-05-24T01:14:12.005Z,7
2023-05-24T01:24:19.414Z,7.1
2023-05-24T01:34:26.833Z,6.9
2023-05-24T01:44:34.238Z,6.5
2023-05-24T01:54:40.650Z,6.7
2023-05-24T02:04:48.059Z,6.5
2023-05-24T02:14:55.482Z,6.4
2023-05-24T02:25:02.887Z,6.5
2023-05-24T02:35:10.321Z,6.5
2023-05-24T02:45:17.720Z,6.5
2023-05-24T02:55:25.149Z,7.9
2023-05-24T03:05:32.542Z,6.7
2023-05-24T03:15:39.960Z,6.7
2023-05-24T03:25:47.386Z,6.4
2023-05-24T03:35:54.790Z,6.4
2023-05-24T03:46:02.189Z,6.7
2023-05-24T03:56:09.614Z,6.7
2023-05-24T04:06:16.035Z,6.9
2023-05-24T04:16:23.451Z,6.9
2023-05-24T04:26:30.861Z,7
2023-05-24T04:36:38.280Z,6.9
2023-05-24T04:46:45.684Z,7.2
2023-05-24T04:56:53.098Z,7.4
2023-05-24T05:07:00.499Z,7.5
2023-05-24T05:17:07.925Z,7.9
2023-05-24T05:27:15.331Z,8.3
2023-05-24T05:37:22.766Z,8.2
2023-05-24T05:47:30.294Z,8.5
2023-05-24T05:57:37.590Z,8.9
2023-05-24T06:07:45.141Z,9.3
2023-05-24T06:17:51.384Z,9.3
2023-05-24T06:27:58.793Z,9.8
2023-05-24T06:38:06.281Z,10
2023-05-24T06:48:13.620Z,10.7
2023-05-24T06:58:21.154Z,11.1
2023-05-24T07:08:28.484Z,11.7
2023-05-24T07:18:35.860Z,11.9
2023-05-24T07:28:43.268Z,11.7
2023-05-24T07:38:50.678Z,12
2023-05-24T07:48:58.080Z,12.2
2023-05-24T07:59:05.556Z,12.6
2023-05-24T08:09:12.973Z,12.7
2023-05-24T08:19:20.317Z,12.2
2023-05-24T08:29:26.747Z,12.7
2023-05-24T08:39:34.162Z,13.2
2023-05-24T08:49:41.621Z,13.6
2023-05-24T08:59:49.018Z,14
2023-05-24T09:09:56.423Z,14.3
2023-05-24T09:20:03.834Z,14.1
2023-05-24T09:30:11.221Z,14.6
2023-05-24T09:40:18.627Z,14.8
2023-05-24T09:50:26.149Z,14.9
2023-05-24T10:00:33.583Z,14.9
2023-05-24T10:10:41.034Z,14.3
2023-05-24T10:20:48.267Z,15.4
2023-05-24T10:30:55.862Z,13.9
2023-05-24T10:41:02.081Z,14
2023-05-24T10:51:09.491Z,13.9
2023-05-24T11:01:16.908Z,14.3
2023-05-24T11:11:24.317Z,15.5
2023-05-24T11:21:31.716Z,15.8
2023-05-24T11:31:39.129Z,15.8
2023-05-24T11:41:46.544Z,15.9
2023-05-24T11:51:53.946Z,15.8
2023-05-24T12:02:01.359Z,16.1
2023-05-24T12:12:08.773Z,16.7
2023-05-24T12:22:15.188Z,16.8
2023-05-24T12:32:22.607Z,16.4
2023-05-24T12:42:30.009Z,17
2023-05-24T12:52:37.410Z,18
2023-05-24T13:02:44.823Z,17.7
2023-05-24T13:12:52.253Z,21.6
2023-05-24T13:22:59.650Z,19.7
2023-05-24T13:33:07.068Z,18.3
2023-05-24T13:43:14.630Z,17.6
2023-05-24T13:53:22.022Z,16.7
2023-05-24T14:03:29.284Z,15.9
2023-05-24T14:13:36.690Z,15.3
2023-05-24T14:23:44.099Z,15
2023-05-24T14:33:50.516Z,15
2023-05-24T14:43:57.945Z,15
2023-05-24T14:54:05.414Z,15.3
2023-05-24T15:04:12.742Z,19.4
2023-05-24T15:14:20.220Z,20.2
2023-05-24T15:24:27.570Z,18.1
2023-05-24T15:34:34.990Z,18.6
2023-05-24T15:44:42.386Z,18.5
2023-05-24T15:54:49.809Z,17.5
2023-05-24T16:04:57.228Z,16.8
2023-05-24T16:15:04.727Z,17
2023-05-24T16:25:12.096Z,17
2023-05-24T16:35:19.433Z,18.8
2023-05-24T16:45:25.883Z,19.2
2023-05-24T16:55:33.265Z,17.7
2023-05-24T17:05:40.688Z,16.8
2023-05-24T17:15:48.092Z,16.1
2023-05-24T17:25:55.517Z,15.7
2023-05-24T17:36:02.915Z,15.3
2023-05-24T17:46:10.393Z,15
2023-05-24T17:56:17.722Z,14.8
2023-05-24T18:06:25.145Z,14.7
2023-05-24T18:16:32.542Z,14.5
2023-05-24T18:26:39.950Z,14.5
2023-05-24T18:36:47.413Z,14.4
2023-05-24T18:46:54.772Z,14.3
2023-05-24T18:57:01.205Z,14.2
2023-05-24T19:07:08.607Z,14
2023-05-24T19:17:16.017Z,13.7
2023-05-24T19:27:23.470Z,13.1
2023-05-24T19:37:30.836Z,12.6
2023-05-24T19:47:38.256Z,12.4
2023-05-24T19:57:45.763Z,11.6
2023-05-24T20:07:53.050Z,11.5
2023-05-24T20:18:00.460Z,11.5
2023-05-24T20:28:07.887Z,11.6
2023-05-24T20:38:15.329Z,11.4
2023-05-24T20:48:22.692Z,11.4
2023-05-24T20:58:30.118Z,11.2
2023-05-24T21:08:36.626Z,11
2023-05-24T21:18:43.953Z,10.7
2023-05-24T21:28:51.360Z,10.9
2023-05-24T21:38:58.787Z,10.8
2023-05-24T21:49:06.191Z,10.5
2023-05-24T21:59:13.609Z,10.4
2023-05-24T22:09:21.010Z,10.2
2023-05-24T22:19:28.414Z,10
2023-05-24T22:29:35.834Z,9.7
2023-05-24T22:39:43.237Z,9.6
2023-05-24T22:49:50.642Z,9.7
2023-05-24T22:59:58.095Z,9.7
2023-05-24T23:10:05.515Z,9.8
2023-05-24T23:20:11.950Z,9.8
2023-05-24T23:30:19.334Z,9.8
2023-05-24T23:40:26.715Z,9.8
2023-05-24T23:50:34.122Z,9.8
